createdAt,value
2023-02-24T00:02:06.137Z,5.72
2023-02-24T00:04:39.669Z,5.70
2023-02-24T00:07:12.772Z,5.68
2023-02-24T00:09:40.713Z,5.63
2023-02-24T00:12:13.268Z,5.58
2023-02-24T00:14:43.690Z,5.58
2023-02-24T00:17:15.781Z,5.61
2023-02-24T00:19:44.095Z,5.57
2023-02-24T00:22:12.793Z,5.53
2023-02-24T00:24:41.353Z,5.49
2023-02-24T00:27:12.130Z,5.48
2023-02-24T00:29:42.030Z,5.50
2023-02-24T00:32:13.625Z,5.49
2023-02-24T00:34:42.092Z,5.47
2023-02-24T00:37:10.148Z,5.49
2023-02-24T00:39:41.544Z,5.50
2023-02-24T00:42:12.179Z,5.47
2023-02-24T00:44:49.782Z,5.44
2023-02-24T00:47:18.413Z,5.49
2023-02-24T00:49:46.554Z,5.52
2023-02-24T00:52:19.202Z,5.54
2023-02-24T00:54:49.262Z,5.61
2023-02-24T00:57:18.826Z,5.65
2023-02-24T00:59:51.564Z,5.68
2023-02-24T01:02:20.465Z,5.67
2023-02-24T01:04:50.044Z,5.69
2023-02-24T01:07:18.056Z,5.69
2023-02-24T01:09:46.266Z,5.71
2023-02-24T01:12:32.894Z,5.72
2023-02-24T01:15:05.276Z,5.73
2023-02-24T01:17:36.303Z,5.73
2023-02-24T01:20:16.780Z,5.74
2023-02-24T01:22:56.806Z,5.77
2023-02-24T01:25:25.188Z,5.81
2023-02-24T01:27:54.583Z,5.84
2023-02-24T01:30:22.786Z,5.84
2023-02-24T01:32:51.968Z,5.78
2023-02-24T01:35:20.288Z,5.79
2023-02-24T01:37:49.515Z,5.81
2023-02-24T01:40:18.752Z,5.78
2023-02-24T01:42:47.779Z,5.74
2023-02-24T01:45:21.634Z,5.70
2023-02-24T01:47:51.705Z,5.61
2023-02-24T01:50:23.789Z,5.52
2023-02-24T01:52:58.880Z,5.45
2023-02-24T01:55:32.466Z,5.41
2023-02-24T01:58:04.975Z,5.39
2023-02-24T02:00:44.950Z,5.38
2023-02-24T02:03:20.753Z,5.34
2023-02-24T02:05:49.412Z,5.29
2023-02-24T02:08:19.307Z,5.26
2023-02-24T02:10:47.791Z,5.22
2023-02-24T02:13:21.472Z,5.22
2023-02-24T02:16:03.043Z,5.22
2023-02-24T02:18:41.625Z,5.26
2023-02-24T02:21:32.779Z,5.26
2023-02-24T02:24:04.734Z,5.26
2023-02-24T02:26:47.638Z,5.31
2023-02-24T02:29:30.751Z,5.35
2023-02-24T02:32:17.329Z,5.36
2023-02-24T02:34:59.547Z,5.36
2023-02-24T02:38:15.156Z,5.38
2023-02-24T02:41:22.451Z,5.40
2023-02-24T02:44:24.033Z,5.40
2023-02-24T02:47:23.108Z,5.38
2023-02-24T02:50:08.440Z,5.39
2023-02-24T02:53:05.901Z,5.43
2023-02-24T02:55:45.818Z,5.47
2023-02-24T02:58:20.609Z,5.51
2023-02-24T03:01:02.906Z,5.55
2023-02-24T03:03:40.500Z,5.57
2023-02-24T03:06:14.705Z,5.62
2023-02-24T03:08:52.541Z,5.66
2023-02-24T03:11:22.142Z,5.69
2023-02-24T03:13:54.438Z,5.70
2023-02-24T03:16:26.627Z,5.73
2023-02-24T03:19:03.829Z,5.78
2023-02-24T03:21:41.000Z,5.84
2023-02-24T03:24:10.034Z,5.89
2023-02-24T03:26:50.169Z,5.93
2023-02-24T03:29:32.420Z,5.94
2023-02-24T03:32:00.590Z,5.98
2023-02-24T03:34:59.677Z,6.02
2023-02-24T03:37:30.230Z,6.03
2023-02-24T03:40:07.489Z,6.00
2023-02-24T03:42:35.812Z,5.96
2023-02-24T03:45:06.451Z,5.93
2023-02-24T03:47:35.001Z,5.91
2023-02-24T03:50:15.582Z,5.87
2023-02-24T03:53:17.695Z,5.81
2023-02-24T03:55:59.092Z,5.75
2023-02-24T03:59:04.811Z,5.76
2023-02-24T04:01:56.521Z,5.74
2023-02-24T04:04:50.056Z,5.70
2023-02-24T04:07:44.047Z,5.65
2023-02-24T04:10:21.686Z,5.61
2023-02-24T04:12:55.948Z,5.59
2023-02-24T04:15:37.899Z,5.61
2023-02-24T04:18:16.020Z,5.61
2023-02-24T04:20:51.276Z,5.65
2023-02-24T04:23:26.830Z,5.68
2023-02-24T04:25:58.260Z,5.71
2023-02-24T04:28:29.859Z,5.76
2023-02-24T04:31:06.335Z,5.81
2023-02-24T04:33:36.624Z,5.85
2023-02-24T04:36:05.268Z,5.86
2023-02-24T04:38:37.175Z,5.82
2023-02-24T04:41:05.442Z,5.78
2023-02-24T04:43:33.420Z,5.78
2023-02-24T04:46:07.638Z,5.79
2023-02-24T04:48:35.803Z,5.81
2023-02-24T04:51:06.803Z,5.83
2023-02-24T04:53:34.845Z,5.86
2023-02-24T04:56:08.893Z,5.86
2023-02-24T04:58:39.489Z,5.87
2023-02-24T05:01:12.625Z,5.94
2023-02-24T05:03:43.525Z,5.98
2023-02-24T05:06:16.681Z,6.03
2023-02-24T05:08:45.046Z,6.08
2023-02-24T05:11:16.209Z,6.10
2023-02-24T05:13:48.217Z,6.09
2023-02-24T05:16:20.562Z,6.13
2023-02-24T05:18:48.679Z,6.16
2023-02-24T05:21:35.707Z,6.18
2023-02-24T05:24:07.329Z,6.23
2023-02-24T05:26:37.542Z,6.24
2023-02-24T05:29:07.206Z,6.23
2023-02-24T05:31:35.652Z,6.30
2023-02-24T05:34:06.805Z,6.31
2023-02-24T05:36:40.804Z,6.30
2023-02-24T05:39:14.555Z,6.28
2023-02-24T05:41:43.459Z,6.23
2023-02-24T05:44:14.920Z,6.17
2023-02-24T05:46:47.096Z,6.14
2023-02-24T05:49:20.773Z,6.13
2023-02-24T05:51:55.852Z,6.12
2023-02-24T05:54:32.654Z,6.09
2023-02-24T05:57:06.769Z,6.07
2023-02-24T05:59:35.408Z,6.06
2023-02-24T06:02:07.572Z,6.07
2023-02-24T06:04:41.266Z,6.09
2023-02-24T06:07:19.437Z,6.10
2023-02-24T06:09:50.469Z,6.09
2023-02-24T06:12:18.835Z,6.09
2023-02-24T06:14:47.746Z,6.07
2023-02-24T06:17:17.131Z,6.04
2023-02-24T06:19:47.176Z,6.07
2023-02-24T06:22:19.113Z,6.08
2023-02-24T06:24:49.584Z,6.07
2023-02-24T06:27:20.050Z,6.09
2023-02-24T06:29:54.061Z,6.10
2023-02-24T06:32:25.360Z,6.14
2023-02-24T06:34:57.621Z,6.16
2023-02-24T06:37:25.687Z,6.16
2023-02-24T06:39:53.766Z,6.17
2023-02-24T06:42:22.239Z,6.21
2023-02-24T06:44:50.955Z,6.24
2023-02-24T06:47:19.031Z,6.28
2023-02-24T06:49:48.061Z,6.35
2023-02-24T06:52:19.056Z,6.41
2023-02-24T06:54:49.051Z,6.60
2023-02-24T06:57:18.099Z,6.90
2023-02-24T06:59:46.347Z,6.94
2023-02-24T07:02:14.937Z,6.95
2023-02-24T07:04:46.184Z,6.97
2023-02-24T07:07:14.474Z,6.97
2023-02-24T07:09:42.803Z,6.99
2023-02-24T07:12:12.714Z,7.00
2023-02-24T07:14:40.981Z,7.03
2023-02-24T07:17:10.334Z,7.05
2023-02-24T07:19:38.478Z,7.08
2023-02-24T07:22:07.659Z,7.14
2023-02-24T07:24:37.449Z,7.18
2023-02-24T07:27:09.494Z,7.23
2023-02-24T07:29:38.245Z,7.29
2023-02-24T07:32:09.552Z,7.37
2023-02-24T07:34:41.102Z,7.45
2023-02-24T07:37:10.532Z,7.53
2023-02-24T07:39:39.965Z,7.54
2023-02-24T07:42:12.407Z,7.56
2023-02-24T07:44:49.275Z,7.55
2023-02-24T07:47:17.355Z,7.57
2023-02-24T07:49:45.902Z,7.60
2023-02-24T07:52:14.554Z,7.61
2023-02-24T07:54:43.222Z,7.60
2023-02-24T07:57:14.183Z,7.61
2023-02-24T07:59:45.123Z,7.61
2023-02-24T08:02:13.769Z,7.62
2023-02-24T08:04:50.120Z,7.59
2023-02-24T08:07:25.232Z,7.59
2023-02-24T08:10:12.506Z,7.58
2023-02-24T08:12:45.461Z,7.59
2023-02-24T08:15:24.507Z,7.57
2023-02-24T08:17:57.430Z,7.54
2023-02-24T08:20:30.150Z,7.53
2023-02-24T08:22:58.516Z,7.53
2023-02-24T08:25:38.266Z,7.46
2023-02-24T08:28:11.900Z,7.48
2023-02-24T08:30:46.164Z,7.52
2023-02-24T08:33:22.165Z,7.55
2023-02-24T08:36:01.694Z,7.56
2023-02-24T08:38:41.805Z,7.57
2023-02-24T08:41:21.837Z,7.60
2023-02-24T08:43:50.193Z,7.63
2023-02-24T08:46:26.391Z,7.65
2023-02-24T08:49:00.184Z,7.65
2023-02-24T08:51:35.470Z,7.64
2023-02-24T08:54:15.625Z,7.66
2023-02-24T08:56:49.181Z,7.66
2023-02-24T08:59:37.920Z,7.69
2023-02-24T09:02:18.883Z,7.74
2023-02-24T09:04:51.724Z,7.76
2023-02-24T09:07:41.221Z,7.76
2023-02-24T09:10:18.288Z,7.80
2023-02-24T09:12:47.616Z,7.85
2023-02-24T09:15:15.981Z,7.89
2023-02-24T09:17:45.188Z,7.94
2023-02-24T09:20:28.081Z,7.96
2023-02-24T09:23:07.383Z,7.96
2023-02-24T09:25:45.231Z,8.00
2023-02-24T09:28:20.715Z,8.03
2023-02-24T09:30:55.167Z,8.08
2023-02-24T09:33:42.482Z,8.12
2023-02-24T09:36:28.338Z,8.13
2023-02-24T09:39:02.467Z,8.10
2023-02-24T09:41:54.332Z,8.12
2023-02-24T09:44:38.274Z,8.13
2023-02-24T09:47:20.024Z,8.14
2023-02-24T09:49:56.658Z,8.14
2023-02-24T09:52:40.944Z,8.15
2023-02-24T09:55:46.478Z,8.11
2023-02-24T09:58:48.893Z,8.12
2023-02-24T10:01:31.298Z,8.12
2023-02-24T10:04:20.329Z,8.13
2023-02-24T10:06:57.720Z,8.16
2023-02-24T10:09:33.552Z,8.17
2023-02-24T10:12:24.349Z,8.15
2023-02-24T10:15:18.967Z,8.19
2023-02-24T10:17:56.249Z,8.25
2023-02-24T10:20:39.564Z,8.31
2023-02-24T10:23:14.016Z,8.35
2023-02-24T10:25:56.177Z,8.44
2023-02-24T10:28:53.770Z,8.45
2023-02-24T10:31:27.085Z,8.49
2023-02-24T10:34:10.954Z,8.54
2023-02-24T10:36:40.796Z,8.55
2023-02-24T10:39:17.091Z,8.61
2023-02-24T10:41:57.417Z,8.77
2023-02-24T10:44:36.725Z,8.91
2023-02-24T10:47:12.614Z,9.09
2023-02-24T10:49:58.300Z,9.25
2023-02-24T10:52:37.508Z,9.46
2023-02-24T10:55:28.339Z,9.63
2023-02-24T10:58:06.660Z,9.62
2023-02-24T11:01:01.325Z,9.61
2023-02-24T11:03:38.693Z,9.53
2023-02-24T11:06:30.624Z,9.49
2023-02-24T11:09:17.562Z,9.47
2023-02-24T11:12:05.394Z,9.45
2023-02-24T11:15:13.584Z,9.46
2023-02-24T11:17:56.985Z,9.42
2023-02-24T11:20:48.551Z,9.34
2023-02-24T11:23:24.267Z,9.33
2023-02-24T11:25:58.299Z,9.35
2023-02-24T11:28:43.800Z,9.36
2023-02-24T11:31:24.398Z,9.41
2023-02-24T11:34:04.904Z,9.38
2023-02-24T11:36:44.940Z,9.38
2023-02-24T11:39:25.061Z,9.34
2023-02-24T11:41:57.490Z,9.40
2023-02-24T11:44:35.176Z,9.49
2023-02-24T11:47:09.685Z,9.58
2023-02-24T11:49:43.648Z,9.57
2023-02-24T11:52:29.641Z,9.56
2023-02-24T11:55:00.812Z,9.56
2023-02-24T11:57:48.454Z,9.61
2023-02-24T12:00:37.440Z,9.62
2023-02-24T12:03:18.346Z,9.62
2023-02-24T12:05:54.920Z,9.63
2023-02-24T12:08:34.775Z,9.65
2023-02-24T12:11:21.848Z,9.67
2023-02-24T12:14:03.314Z,9.69
2023-02-24T12:16:35.791Z,9.74
2023-02-24T12:19:19.991Z,9.76
2023-02-24T12:21:56.048Z,9.78
2023-02-24T12:24:24.290Z,9.83
2023-02-24T12:26:55.779Z,9.88
2023-02-24T12:30:06.889Z,9.96
2023-02-24T12:32:57.588Z,10.08
2023-02-24T12:35:54.160Z,10.20
2023-02-24T12:38:44.290Z,10.28
2023-02-24T12:41:40.740Z,10.35
2023-02-24T12:44:31.710Z,10.53
2023-02-24T12:47:11.813Z,10.71
2023-02-24T12:50:00.762Z,10.92
2023-02-24T12:52:40.946Z,11.11
2023-02-24T12:55:19.234Z,11.24
2023-02-24T12:58:02.366Z,11.28
2023-02-24T13:00:43.396Z,11.43
2023-02-24T13:03:14.060Z,11.61
2023-02-24T13:05:44.956Z,11.57
2023-02-24T13:08:12.795Z,11.56
2023-02-24T13:10:57.577Z,11.52
2023-02-24T13:13:50.428Z,11.63
2023-02-24T13:16:29.801Z,11.78
2023-02-24T13:19:06.976Z,11.86
2023-02-24T13:21:35.091Z,11.98
2023-02-24T13:24:03.448Z,12.07
2023-02-24T13:26:32.646Z,12.14
2023-02-24T13:29:14.118Z,12.25
2023-02-24T13:32:35.156Z,12.09
2023-02-24T13:35:06.862Z,12.05
2023-02-24T13:37:38.098Z,11.99
2023-02-24T13:40:18.290Z,11.91
2023-02-24T13:43:01.384Z,11.85
2023-02-24T13:45:33.810Z,11.81
2023-02-24T13:48:39.488Z,11.78
2023-02-24T13:51:24.060Z,11.70
2023-02-24T13:54:23.277Z,11.66
2023-02-24T13:56:57.334Z,11.60
2023-02-24T13:59:34.822Z,11.61
2023-02-24T14:02:14.879Z,11.68
2023-02-24T14:04:50.573Z,11.84
2023-02-24T14:07:39.909Z,11.88
2023-02-24T14:10:19.398Z,11.92
2023-02-24T14:12:49.698Z,11.86
2023-02-24T14:15:25.591Z,11.81
2023-02-24T14:18:04.898Z,11.66
2023-02-24T14:20:35.380Z,11.66
2023-02-24T14:23:24.253Z,11.61
2023-02-24T14:25:57.483Z,11.65
2023-02-24T14:28:30.673Z,11.70
2023-02-24T14:31:08.415Z,11.61
2023-02-24T14:33:39.086Z,11.59
2023-02-24T14:36:23.761Z,11.57
2023-02-24T14:39:14.365Z,11.46
2023-02-24T14:41:43.268Z,11.44
2023-02-24T14:44:28.674Z,11.39
2023-02-24T14:47:05.154Z,11.33
2023-02-24T14:49:35.372Z,11.26
2023-02-24T14:52:06.500Z,11.27
2023-02-24T14:54:47.555Z,11.23
2023-02-24T14:57:22.861Z,11.18
2023-02-24T14:59:58.705Z,11.12
2023-02-24T15:02:33.337Z,11.07
2023-02-24T15:05:01.623Z,11.04
2023-02-24T15:07:33.706Z,11.03
2023-02-24T15:10:03.055Z,11.01
2023-02-24T15:12:43.163Z,11.03
2023-02-24T15:15:23.710Z,11.05
2023-02-24T15:17:56.359Z,11.03
2023-02-24T15:20:40.170Z,11.01
2023-02-24T15:23:29.380Z,11.00
2023-02-24T15:25:57.476Z,10.99
2023-02-24T15:28:31.123Z,11.00
2023-02-24T15:31:18.139Z,10.97
2023-02-24T15:33:55.561Z,10.93
2023-02-24T15:36:27.138Z,10.90
2023-02-24T15:39:07.132Z,10.87
2023-02-24T15:41:41.098Z,10.97
2023-02-24T15:44:31.541Z,11.06
2023-02-24T15:47:12.747Z,11.02
2023-02-24T15:49:41.010Z,10.93
2023-02-24T15:52:10.822Z,10.84
2023-02-24T15:54:42.461Z,10.82
2023-02-24T15:57:14.722Z,10.78
2023-02-24T15:59:43.165Z,10.74
2023-02-24T16:02:19.853Z,10.71
2023-02-24T16:04:48.848Z,10.67
2023-02-24T16:07:24.739Z,10.68
2023-02-24T16:09:54.848Z,10.69
2023-02-24T16:12:32.131Z,10.67
2023-02-24T16:15:03.047Z,10.65
2023-02-24T16:17:38.985Z,10.64
2023-02-24T16:20:16.699Z,10.61
2023-02-24T16:22:44.877Z,10.59
2023-02-24T16:25:16.748Z,10.60
2023-02-24T16:27:44.764Z,10.60
2023-02-24T16:30:20.830Z,10.59
2023-02-24T16:32:50.802Z,10.57
2023-02-24T16:35:19.883Z,10.55
2023-02-24T16:37:49.172Z,10.53
2023-02-24T16:40:26.273Z,10.52
2023-02-24T16:42:54.551Z,10.55
2023-02-24T16:45:26.801Z,10.56
2023-02-24T16:47:57.284Z,10.55
2023-02-24T16:50:39.563Z,10.53
2023-02-24T16:53:08.921Z,10.54
2023-02-24T16:55:37.474Z,10.53
2023-02-24T16:58:05.335Z,10.52
2023-02-24T17:00:33.408Z,10.53
2023-02-24T17:03:06.103Z,10.54
2023-02-24T17:05:34.308Z,10.56
2023-02-24T17:08:02.348Z,10.55
2023-02-24T17:10:31.700Z,10.58
2023-02-24T17:12:59.803Z,10.62
2023-02-24T17:15:27.841Z,10.64
2023-02-24T17:17:55.973Z,10.65
2023-02-24T17:20:24.189Z,10.65
2023-02-24T17:22:52.395Z,10.66
2023-02-24T17:25:27.055Z,10.69
2023-02-24T17:27:56.613Z,10.94
2023-02-24T17:30:30.834Z,11.41
2023-02-24T17:32:59.890Z,11.44
2023-02-24T17:35:28.819Z,11.31
2023-02-24T17:37:57.108Z,11.21
2023-02-24T17:40:25.289Z,11.11
2023-02-24T17:42:53.213Z,11.06
2023-02-24T17:45:21.525Z,11.00
2023-02-24T17:47:49.640Z,10.94
2023-02-24T17:50:17.754Z,10.88
2023-02-24T17:52:46.171Z,10.82
2023-02-24T17:55:14.331Z,10.80
2023-02-24T17:57:43.297Z,10.77
2023-02-24T18:00:12.909Z,10.76
2023-02-24T18:02:41.274Z,10.73
2023-02-24T18:05:10.162Z,10.72
2023-02-24T18:07:38.576Z,10.71
2023-02-24T18:10:07.553Z,10.70
2023-02-24T18:12:35.468Z,10.69
2023-02-24T18:15:09.589Z,10.65
2023-02-24T18:17:38.986Z,10.66
2023-02-24T18:20:08.351Z,10.67
2023-02-24T18:22:36.453Z,10.67
2023-02-24T18:25:05.326Z,10.67
2023-02-24T18:27:33.696Z,10.67
2023-02-24T18:30:01.740Z,10.67
2023-02-24T18:32:29.820Z,10.67
2023-02-24T18:34:57.970Z,10.70
2023-02-24T18:37:25.823Z,10.70
2023-02-24T18:39:54.141Z,10.72
2023-02-24T18:42:22.175Z,10.73
2023-02-24T18:44:50.011Z,10.74
2023-02-24T18:47:18.061Z,10.74
2023-02-24T18:49:46.102Z,10.78
2023-02-24T18:52:13.932Z,10.82
2023-02-24T18:54:41.871Z,10.84
2023-02-24T18:57:10.203Z,10.87
2023-02-24T18:59:38.254Z,10.90
2023-02-24T19:02:06.339Z,10.90
2023-02-24T19:04:34.896Z,10.93
2023-02-24T19:07:03.259Z,11.03
2023-02-24T19:09:31.217Z,11.14
2023-02-24T19:11:59.140Z,11.12
2023-02-24T19:14:27.581Z,11.09
2023-02-24T19:16:55.798Z,11.09
2023-02-24T19:19:24.164Z,11.06
2023-02-24T19:21:52.454Z,11.06
2023-02-24T19:24:20.770Z,11.04
2023-02-24T19:26:51.239Z,11.01
2023-02-24T19:29:20.536Z,11.01
2023-02-24T19:31:54.075Z,11.01
2023-02-24T19:34:22.711Z,11.01
2023-02-24T19:36:50.843Z,11.00
2023-02-24T19:39:18.838Z,10.98
2023-02-24T19:41:49.468Z,10.97
2023-02-24T19:44:17.754Z,10.97
2023-02-24T19:46:45.869Z,10.98
2023-02-24T19:49:14.391Z,11.01
2023-02-24T19:51:43.601Z,11.00
2023-02-24T19:54:12.647Z,11.03
2023-02-24T19:56:40.474Z,11.03
2023-02-24T19:59:08.984Z,11.06
2023-02-24T20:01:36.936Z,11.10
2023-02-24T20:04:06.073Z,11.06
2023-02-24T20:06:39.731Z,11.08
2023-02-24T20:09:17.374Z,11.09
2023-02-24T20:11:46.149Z,11.07
2023-02-24T20:14:16.750Z,11.03
2023-02-24T20:16:45.398Z,11.06
2023-02-24T20:19:14.982Z,11.03
2023-02-24T20:21:43.247Z,11.01
2023-02-24T20:24:14.604Z,11.03
2023-02-24T20:26:47.144Z,11.04
2023-02-24T20:29:16.983Z,11.06
2023-02-24T20:31:46.410Z,11.10
2023-02-24T20:34:16.594Z,11.13
2023-02-24T20:36:44.758Z,11.14
2023-02-24T20:39:12.844Z,11.20
2023-02-24T20:41:41.898Z,11.24
2023-02-24T20:44:11.188Z,11.24
2023-02-24T20:46:39.112Z,11.26
2023-02-24T20:49:10.517Z,11.25
2023-02-24T20:51:39.086Z,11.25
2023-02-24T20:54:10.260Z,11.20
2023-02-24T20:56:40.863Z,11.20
2023-02-24T20:59:11.111Z,11.21
2023-02-24T21:01:39.860Z,11.09
2023-02-24T21:04:08.798Z,10.99
2023-02-24T21:06:37.134Z,10.96
2023-02-24T21:09:05.705Z,10.85
2023-02-24T21:11:34.673Z,10.82
2023-02-24T21:14:03.077Z,10.72
2023-02-24T21:16:31.037Z,10.64
2023-02-24T21:18:59.593Z,10.55
2023-02-24T21:21:27.729Z,10.50
2023-02-24T21:23:56.740Z,10.44
2023-02-24T21:26:26.984Z,10.36
2023-02-24T21:28:57.793Z,10.36
2023-02-24T21:31:27.492Z,10.38
2023-02-24T21:33:56.268Z,10.45
2023-02-24T21:36:26.239Z,10.54
2023-02-24T21:38:55.263Z,10.53
2023-02-24T21:41:23.872Z,10.51
2023-02-24T21:43:55.231Z,10.48
2023-02-24T21:46:28.121Z,10.46
2023-02-24T21:48:58.646Z,10.46
2023-02-24T21:51:28.229Z,10.41
2023-02-24T21:53:57.310Z,10.35
2023-02-24T21:56:30.222Z,10.32
2023-02-24T21:59:09.233Z,10.25
2023-02-24T22:01:40.743Z,10.12
2023-02-24T22:04:12.221Z,10.09
2023-02-24T22:06:41.996Z,10.06
2023-02-24T22:09:11.379Z,9.98
2023-02-24T22:11:41.061Z,9.90
2023-02-24T22:14:10.837Z,9.96
2023-02-24T22:16:40.029Z,9.97
2023-02-24T22:19:08.289Z,10.00
2023-02-24T22:21:36.619Z,10.07
2023-02-24T22:24:04.841Z,10.10
2023-02-24T22:26:33.204Z,10.13
2023-02-24T22:29:01.466Z,10.16
2023-02-24T22:31:32.142Z,10.20
2023-02-24T22:34:00.142Z,10.22
2023-02-24T22:36:33.769Z,10.23
2023-02-24T22:39:02.437Z,10.23
2023-02-24T22:41:34.125Z,10.21
2023-02-24T22:44:04.926Z,10.19
2023-02-24T22:46:35.376Z,10.19
2023-02-24T22:49:04.183Z,10.22
2023-02-24T22:51:32.382Z,10.25
2023-02-24T22:54:01.213Z,10.27
2023-02-24T22:56:30.227Z,10.30
2023-02-24T22:58:59.402Z,10.34
2023-02-24T23:01:32.932Z,10.31
2023-02-24T23:04:03.677Z,10.18
2023-02-24T23:06:31.783Z,10.13
2023-02-24T23:09:01.792Z,10.12
2023-02-24T23:11:32.534Z,10.12
2023-02-24T23:14:03.745Z,10.17
2023-02-24T23:16:35.288Z,10.21
2023-02-24T23:19:06.452Z,10.24
2023-02-24T23:21:46.124Z,10.27
2023-02-24T23:24:16.166Z,10.23
2023-02-24T23:26:45.676Z,10.15
2023-02-24T23:29:17.398Z,10.12
2023-02-24T23:31:46.028Z,10.13
2023-02-24T23:34:14.911Z,10.11
2023-02-24T23:36:45.957Z,10.07
2023-02-24T23:39:16.460Z,10.05
2023-02-24T23:41:44.890Z,10.12
2023-02-24T23:44:12.802Z,10.21
2023-02-24T23:46:41.920Z,10.28
2023-02-24T23:49:09.913Z,10.27
2023-02-24T23:51:48.137Z,10.25
2023-02-24T23:54:18.538Z,10.22
2023-02-24T23:56:46.820Z,10.17
2023-02-24T23:59:15.233Z,10.13
